VVPB/HUI METAR and TAF weather

Enter ICAO airport designator
Station Type Date Time Source
VVPB METAR 2020/01/22 18:00 UTC NOAA

VVPB 221800Z 21001KT 4000 BR FEW020 SCT050 21/20 Q1016 NOSIG


Station Type Date Time Source
VVPB Decoded METAR 2020/01/22 18:00 UTC NOAA

Hue, Vietnam (VVPB) 16-24N 107-41E 17M
Jan 22, 2020 - 01:00 PM EST / 2020.01.22 1800 UTC
Wind: from the SSW (210 degrees) at 1 MPH (1 KT):0
Visibility: 2 mile(s):0
Sky conditions: partly cloudy
Weather: mist
Temperature: 69 F (21 C)
Dew Point: 68 F (20 C)
Relative Humidity: 94%
Pressure (altimeter): 30.00 in. Hg (1016 hPa)
ob: VVPB 221800Z 21001KT 4000 BR FEW020 SCT050 21/20 Q1016 NOSIG
cycle: 18

Station Type Date Time Source
VVPB TAF 2020/01/22 18:00 UTC NOAA

TAF VVPB 221700Z 2218/2318 21003KT 7000 FEW020 SCT060
BECMG 2218/2220 4000 BR
BECMG 2221/2222 2500 BR
BECMG 2300/2301 8000 NSW
BECMG 2305/2306 07010KT

Example: see airport list